sensor_id;sensor_type;location;lat;lon;timestamp;P1;durP1;ratioP1;P2;durP2;ratioP2
85939;SDS011;76505;46.706;12.340;2024-02-23T00:00:41;0.4;;;0.275;;
85939;SDS011;76505;46.706;12.340;2024-02-23T00:01:41;0.3125;;;0.1875;;
85939;SDS011;76505;46.706;12.340;2024-02-23T00:02:41;0.2875;;;0.2625;;
85939;SDS011;76505;46.706;12.340;2024-02-23T00:03:41;0.575;;;0.35;;
85939;SDS011;76505;46.706;12.340;2024-02-23T00:04:42;1.4625000000000001;;;0.7749999999999999;;
85939;SDS011;76505;46.706;12.340;2024-02-23T00:05:42;0.275;;;0.1;;
85939;SDS011;76505;46.706;12.340;2024-02-23T00:06:41;1.0250000000000001;;;0.3375;;
85939;SDS011;76505;46.706;12.340;2024-02-23T00:07:41;1.7125;;;0.48750000000000004;;
85939;SDS011;76505;46.706;12.340;2024-02-23T00:08:42;0.8;;;0.2625;;
85939;SDS011;76505;46.706;12.340;2024-02-23T00:09:41;0.8125;;;0.275;;
85939;SDS011;76505;46.706;12.340;2024-02-23T00:10:41;0.8875;;;0.35;;
85939;SDS011;76505;46.706;12.340;2024-02-23T00:11:44;0.9625000000000001;;;0.36250000000000004;;
85939;SDS011;76505;46.706;12.340;2024-02-23T00:12:42;0.1875;;;0.1875;;
85939;SDS011;76505;46.706;12.340;2024-02-23T00:13:41;0.675;;;0.275;;
85939;SDS011;76505;46.706;12.340;2024-02-23T00:14:41;0.7;;;0.21250000000000002;;
85939;SDS011;76505;46.706;12.340;2024-02-23T00:15:41;1.2999999999999998;;;0.275;;
85939;SDS011;76505;46.706;12.340;2024-02-23T00:16:41;0.5875;;;0.375;;
85939;SDS011;76505;46.706;12.340;2024-02-23T00:17:42;0.6375;;;0.2375;;
85939;SDS011;76505;46.706;12.340;2024-02-23T00:18:41;0.5750000000000001;;;0.2;;
85939;SDS011;76505;46.706;12.340;2024-02-23T00:19:41;0.6499999999999999;;;0.3;;
85939;SDS011;76505;46.706;12.340;2024-02-23T00:20:41;0.1125;;;0.1125;;
85939;SDS011;76505;46.706;12.340;2024-02-23T00:21:42;0.36250000000000004;;;0.25;;
85939;SDS011;76505;46.706;12.340;2024-02-23T00:22:41;0.6125;;;0.375;;
85939;SDS011;76505;46.706;12.340;2024-02-23T00:23:42;0.1875;;;0.1875;;
85939;SDS011;76505;46.706;12.340;2024-02-23T00:24:42;0.7;;;0.33749999999999997;;
85939;SDS011;76505;46.706;12.340;2024-02-23T00:25:41;0.4875;;;0.275;;
85939;SDS011;76505;46.706;12.340;2024-02-23T00:26:41;0.2875;;;0.2;;
85939;SDS011;76505;46.706;12.340;2024-02-23T00:27:42;0.23750000000000002;;;0.225;;
85939;SDS011;76505;46.706;12.340;2024-02-23T00:28:41;0.675;;;0.15000000000000002;;
85939;SDS011;76505;46.706;12.340;2024-02-23T00:29:41;0.7125;;;0.4125;;
85939;SDS011;76505;46.706;12.340;2024-02-23T00:30:41;0.26249999999999996;;;0.26249999999999996;;
85939;SDS011;76505;46.706;12.340;2024-02-23T00:31:42;0.1375;;;0.1375;;
85939;SDS011;76505;46.706;12.340;2024-02-23T00:32:41;0.675;;;0.35;;
85939;SDS011;76505;46.706;12.340;2024-02-23T00:33:42;0.21250000000000002;;;0.2;;
85939;SDS011;76505;46.706;12.340;2024-02-23T00:34:41;0.4375;;;0.2875;;
85939;SDS011;76505;46.706;12.340;2024-02-23T00:35:41;0.1625;;;0.15000000000000002;;
85939;SDS011;76505;46.706;12.340;2024-02-23T00:36:42;0.1;;;0.1;;
85939;SDS011;76505;46.706;12.340;2024-02-23T00:37:41;0.2;;;0.2;;
85939;SDS011;76505;46.706;12.340;2024-02-23T00:38:42;0.5750000000000001;;;0.15000000000000002;;
85939;SDS011;76505;46.706;12.340;2024-02-23T00:39:43;0.35;;;0.225;;
85939;SDS011;76505;46.706;12.340;2024-02-23T00:40:41;0.5125;;;0.35;;
85939;SDS011;76505;46.706;12.340;2024-02-23T00:41:41;0.6124999999999999;;;0.1875;;
85939;SDS011;76505;46.706;12.340;2024-02-23T00:42:41;1.35;;;0.6;;
85939;SDS011;76505;46.706;12.340;2024-02-23T00:43:41;0.5;;;0.2625;;
85939;SDS011;76505;46.706;12.340;2024-02-23T00:44:41;0.6875;;;0.3;;
85939;SDS011;76505;46.706;12.340;2024-02-23T00:45:41;0.375;;;0.3125;;
85939;SDS011;76505;46.706;12.340;2024-02-23T00:46:41;1.3375;;;0.475;;
85939;SDS011;76505;46.706;12.340;2024-02-23T00:47:42;0.8875;;;0.3375;;
85939;SDS011;76505;46.706;12.340;2024-02-23T00:48:41;1.6875000000000002;;;0.5;;
85939;SDS011;76505;46.706;12.340;2024-02-23T00:49:41;1.5125;;;0.375;;
85939;SDS011;76505;46.706;12.340;2024-02-23T00:50:41;1.675;;;0.3875;;
85939;SDS011;76505;46.706;12.340;2024-02-23T00:51:42;0.55;;;0.23750000000000002;;
85939;SDS011;76505;46.706;12.340;2024-02-23T00:52:41;0.17500000000000002;;;0.1125;;
85939;SDS011;76505;46.706;12.340;2024-02-23T00:53:41;0.5;;;0.32499999999999996;;
85939;SDS011;76505;46.706;12.340;2024-02-23T00:54:41;0.275;;;0.07500000000000001;;
85939;SDS011;76505;46.706;12.340;2024-02-23T00:55:41;0.5125;;;0.225;;
85939;SDS011;76505;46.706;12.340;2024-02-23T00:56:41;1.05;;;0.22499999999999998;;
85939;SDS011;76505;46.706;12.340;2024-02-23T00:57:41;0.22500000000000003;;;0.1875;;
85939;SDS011;76505;46.706;12.340;2024-02-23T00:58:41;0.2625;;;0.1;;
85939;SDS011;76505;46.706;12.340;2024-02-23T00:59:41;0.26249999999999996;;;0.2;;
85939;SDS011;76505;46.706;12.340;2024-02-23T01:00:42;0.38749999999999996;;;0.21250000000000002;;
85939;SDS011;76505;46.706;12.340;2024-02-23T01:01:41;0.1375;;;0.125;;
85939;SDS011;76505;46.706;12.340;2024-02-23T01:02:41;2.575;;;0.25;;
85939;SDS011;76505;46.706;12.340;2024-02-23T01:03:41;0.275;;;0.1875;;
85939;SDS011;76505;46.706;12.340;2024-02-23T01:04:41;0.775;;;0.3;;
85939;SDS011;76505;46.706;12.340;2024-02-23T01:05:42;1.025;;;0.45;;
85939;SDS011;76505;46.706;12.340;2024-02-23T01:06:41;0.8125;;;0.375;;
85939;SDS011;76505;46.706;12.340;2024-02-23T01:07:41;0.45;;;0.3;;
85939;SDS011;76505;46.706;12.340;2024-02-23T01:08:41;0.3375;;;0.22499999999999998;;
85939;SDS011;76505;46.706;12.340;2024-02-23T01:09:41;0.3375;;;0.22500000000000003;;
85939;SDS011;76505;46.706;12.340;2024-02-23T01:10:41;1.0125;;;0.275;;
85939;SDS011;76505;46.706;12.340;2024-02-23T01:11:41;0.05;;;0.05;;
85939;SDS011;76505;46.706;12.340;2024-02-23T01:12:46;0.44999999999999996;;;0.2875;;
85939;SDS011;76505;46.706;12.340;2024-02-23T01:13:42;0.6625000000000001;;;0.21250000000000002;;
85939;SDS011;76505;46.706;12.340;2024-02-23T01:14:43;0.875;;;0.45000000000000007;;
85939;SDS011;76505;46.706;12.340;2024-02-23T01:15:42;1.0;;;0.35;;
85939;SDS011;76505;46.706;12.340;2024-02-23T01:16:42;1.2874999999999999;;;0.375;;
85939;SDS011;76505;46.706;12.340;2024-02-23T01:17:44;0.8125;;;0.4;;
85939;SDS011;76505;46.706;12.340;2024-02-23T01:18:48;0.8625;;;0.15000000000000002;;
85939;SDS011;76505;46.706;12.340;2024-02-23T01:19:48;1.0125000000000002;;;0.25;;
85939;SDS011;76505;46.706;12.340;2024-02-23T01:20:42;0.44999999999999996;;;0.30000000000000004;;
85939;SDS011;76505;46.706;12.340;2024-02-23T01:21:42;0.55;;;0.28750000000000003;;
85939;SDS011;76505;46.706;12.340;2024-02-23T01:22:42;0.8125;;;0.2625;;
85939;SDS011;76505;46.706;12.340;2024-02-23T01:23:42;0.38749999999999996;;;0.275;;
85939;SDS011;76505;46.706;12.340;2024-02-23T01:24:41;0.8;;;0.4;;
85939;SDS011;76505;46.706;12.340;2024-02-23T01:25:47;0.4625;;;0.23750000000000002;;
85939;SDS011;76505;46.706;12.340;2024-02-23T01:26:42;0.3125;;;0.1125;;
85939;SDS011;76505;46.706;12.340;2024-02-23T01:27:41;1.0625;;;0.225;;
85939;SDS011;76505;46.706;12.340;2024-02-23T01:28:41;0.18750000000000003;;;0.125;;
85939;SDS011;76505;46.706;12.340;2024-02-23T01:29:41;1.0625;;;0.33749999999999997;;
85939;SDS011;76505;46.706;12.340;2024-02-23T01:30:42;0.1625;;;0.1125;;
85939;SDS011;76505;46.706;12.340;2024-02-23T01:31:41;0.2625;;;0.17500000000000002;;
85939;SDS011;76505;46.706;12.340;2024-02-23T01:32:42;0.7749999999999999;;;0.3875;;
85939;SDS011;76505;46.706;12.340;2024-02-23T01:33:42;0.4;;;0.2;;
85939;SDS011;76505;46.706;12.340;2024-02-23T01:34:41;0.625;;;0.23750000000000002;;
85939;SDS011;76505;46.706;12.340;2024-02-23T01:35:41;0.9249999999999999;;;0.4;;
85939;SDS011;76505;46.706;12.340;2024-02-23T01:36:41;0.21250000000000002;;;0.1375;;
85939;SDS011;76505;46.706;12.340;2024-02-23T01:37:41;0.5;;;0.33749999999999997;;
85939;SDS011;76505;46.706;12.340;2024-02-23T01:38:43;0.1625;;;0.11250000000000002;;
85939;SDS011;76505;46.706;12.340;2024-02-23T01:39:41;0.475;;;0.1;;
85939;SDS011;76505;46.706;12.340;2024-02-23T01:40:41;0.3;;;0.225;;
85939;SDS011;76505;46.706;12.340;2024-02-23T01:41:42;0.2125;;;0.1;;
85939;SDS011;76505;46.706;12.340;2024-02-23T01:42:41;0.8125;;;0.3625;;
85939;SDS011;76505;46.706;12.340;2024-02-23T01:43:42;0.07500000000000001;;;0.07500000000000001;;
85939;SDS011;76505;46.706;12.340;2024-02-23T01:44:41;0.4;;;0.2;;
85939;SDS011;76505;46.706;12.340;2024-02-23T01:45:41;0.2;;;0.175;;
85939;SDS011;76505;46.706;12.340;2024-02-23T01:46:41;1.5625;;;0.4125;;
85939;SDS011;76505;46.706;12.340;2024-02-23T01:47:41;2.05;;;0.4875;;
85939;SDS011;76505;46.706;12.340;2024-02-23T01:48:41;0.925;;;0.3125;;
85939;SDS011;76505;46.706;12.340;2024-02-23T01:49:41;0.1625;;;0.1625;;
85939;SDS011;76505;46.706;12.340;2024-02-23T01:50:42;0.16250000000000003;;;0.15000000000000002;;
85939;SDS011;76505;46.706;12.340;2024-02-23T01:51:41;0.5625;;;0.1625;;
85939;SDS011;76505;46.706;12.340;2024-02-23T01:52:41;0.525;;;0.17500000000000002;;
85939;SDS011;76505;46.706;12.340;2024-02-23T01:53:41;0.9125000000000001;;;0.35;;
85939;SDS011;76505;46.706;12.340;2024-02-23T01:54:41;0.4;;;0.2625;;
85939;SDS011;76505;46.706;12.340;2024-02-23T01:55:41;0.08750000000000001;;;0.075;;
85939;SDS011;76505;46.706;12.340;2024-02-23T01:56:42;0.3125;;;0.2625;;
85939;SDS011;76505;46.706;12.340;2024-02-23T01:57:41;0.3125;;;0.1625;;
85939;SDS011;76505;46.706;12.340;2024-02-23T01:58:41;0.25;;;0.17500000000000002;;
85939;SDS011;76505;46.706;12.340;2024-02-23T01:59:41;0.1;;;0.1;;
85939;SDS011;76505;46.706;12.340;2024-02-23T02:00:41;0.1375;;;0.125;;
85939;SDS011;76505;46.706;12.340;2024-02-23T02:01:42;0.1875;;;0.17500000000000002;;
85939;SDS011;76505;46.706;12.340;2024-02-23T02:02:41;0.125;;;0.1125;;
85939;SDS011;76505;46.706;12.340;2024-02-23T02:03:41;0.15000000000000002;;;0.125;;
85939;SDS011;76505;46.706;12.340;2024-02-23T02:04:41;0.4875;;;0.3375;;
85939;SDS011;76505;46.706;12.340;2024-02-23T02:05:41;0.1125;;;0.1125;;
85939;SDS011;76505;46.706;12.340;2024-02-23T02:06:42;0.1125;;;0.1;;
85939;SDS011;76505;46.706;12.340;2024-02-23T02:07:41;0.9375;;;0.21250000000000002;;
85939;SDS011;76505;46.706;12.340;2024-02-23T02:08:41;0.4;;;0.2;;
85939;SDS011;76505;46.706;12.340;2024-02-23T02:09:41;0.36250000000000004;;;0.3;;
85939;SDS011;76505;46.706;12.340;2024-02-23T02:10:43;0.15000000000000002;;;0.15000000000000002;;
85939;SDS011;76505;46.706;12.340;2024-02-23T02:11:45;0.1;;;0.1;;
85939;SDS011;76505;46.706;12.340;2024-02-23T02:12:41;1.0625;;;0.375;;
85939;SDS011;76505;46.706;12.340;2024-02-23T02:13:41;0.22500000000000003;;;0.22500000000000003;;
85939;SDS011;76505;46.706;12.340;2024-02-23T02:14:41;0.21250000000000002;;;0.1625;;
85939;SDS011;76505;46.706;12.340;2024-02-23T02:15:43;0.175;;;0.1125;;
85939;SDS011;76505;46.706;12.340;2024-02-23T02:16:42;0.6;;;0.325;;
85939;SDS011;76505;46.706;12.340;2024-02-23T02:17:41;0.125;;;0.125;;
85939;SDS011;76505;46.706;12.340;2024-02-23T02:18:41;1.1749999999999998;;;0.5;;
85939;SDS011;76505;46.706;12.340;2024-02-23T02:19:45;1.75;;;0.7000000000000001;;
85939;SDS011;76505;46.706;12.340;2024-02-23T02:20:46;0.2625;;;0.1375;;
85939;SDS011;76505;46.706;12.340;2024-02-23T02:21:41;0.1375;;;0.125;;
85939;SDS011;76505;46.706;12.340;2024-02-23T02:22:41;0.9125000000000001;;;0.25;;
85939;SDS011;76505;46.706;12.340;2024-02-23T02:23:41;0.05;;;0.05;;
85939;SDS011;76505;46.706;12.340;2024-02-23T02:24:44;0.25;;;0.175;;
85939;SDS011;76505;46.706;12.340;2024-02-23T02:25:41;0.4125;;;0.3;;
85939;SDS011;76505;46.706;12.340;2024-02-23T02:26:43;0.0625;;;0.0625;;
85939;SDS011;76505;46.706;12.340;2024-02-23T02:27:42;0.5;;;0.3;;
85939;SDS011;76505;46.706;12.340;2024-02-23T02:28:42;1.1749999999999998;;;0.35;;
85939;SDS011;76505;46.706;12.340;2024-02-23T02:29:41;2.1;;;0.5;;
85939;SDS011;76505;46.706;12.340;2024-02-23T02:30:41;1.3250000000000002;;;0.3875;;
85939;SDS011;76505;46.706;12.340;2024-02-23T02:31:41;0.9125000000000001;;;0.4;;
85939;SDS011;76505;46.706;12.340;2024-02-23T02:32:41;0.23750000000000002;;;0.2;;
85939;SDS011;76505;46.706;12.340;2024-02-23T02:33:41;1.5875;;;0.3375;;
85939;SDS011;76505;46.706;12.340;2024-02-23T02:34:41;0.4625;;;0.15000000000000002;;
85939;SDS011;76505;46.706;12.340;2024-02-23T02:35:41;0.41250000000000003;;;0.1625;;
85939;SDS011;76505;46.706;12.340;2024-02-23T02:36:41;0.27499999999999997;;;0.2;;
85939;SDS011;76505;46.706;12.340;2024-02-23T02:37:41;0.16250000000000003;;;0.16250000000000003;;
85939;SDS011;76505;46.706;12.340;2024-02-23T02:38:41;0.21250000000000002;;;0.07500000000000001;;
85939;SDS011;76505;46.706;12.340;2024-02-23T02:39:41;0.21250000000000002;;;0.1125;;
85939;SDS011;76505;46.706;12.340;2024-02-23T02:40:41;0.23750000000000002;;;0.16250000000000003;;
85939;SDS011;76505;46.706;12.340;2024-02-23T02:41:41;0.38749999999999996;;;0.0625;;
85939;SDS011;76505;46.706;12.340;2024-02-23T02:42:41;0.48750000000000004;;;0.3125;;
85939;SDS011;76505;46.706;12.340;2024-02-23T02:43:41;0.525;;;0.1625;;
85939;SDS011;76505;46.706;12.340;2024-02-23T02:44:41;0.4375;;;0.17500000000000002;;
85939;SDS011;76505;46.706;12.340;2024-02-23T02:45:42;0.125;;;0.1;;
85939;SDS011;76505;46.706;12.340;2024-02-23T02:46:41;0.475;;;0.175;;
85939;SDS011;76505;46.706;12.340;2024-02-23T02:47:41;0.125;;;0.1125;;
85939;SDS011;76505;46.706;12.340;2024-02-23T02:48:41;0.125;;;0.1125;;
85939;SDS011;76505;46.706;12.340;2024-02-23T02:49:41;0.325;;;0.2625;;
85939;SDS011;76505;46.706;12.340;2024-02-23T02:50:42;0.46249999999999997;;;0.17500000000000002;;
85939;SDS011;76505;46.706;12.340;2024-02-23T02:51:41;0.475;;;0.25;;
85939;SDS011;76505;46.706;12.340;2024-02-23T02:52:41;0.4375;;;0.3;;
85939;SDS011;76505;46.706;12.340;2024-02-23T02:53:41;1.7999999999999998;;;0.33749999999999997;;
85939;SDS011;76505;46.706;12.340;2024-02-23T02:54:42;0.2875;;;0.1875;;
85939;SDS011;76505;46.706;12.340;2024-02-23T02:55:44;1.2875;;;0.575;;
85939;SDS011;76505;46.706;12.340;2024-02-23T02:56:42;0.15000000000000002;;;0.1;;
85939;SDS011;76505;46.706;12.340;2024-02-23T02:57:43;1.2;;;0.2875;;
85939;SDS011;76505;46.706;12.340;2024-02-23T02:58:41;0.125;;;0.125;;
85939;SDS011;76505;46.706;12.340;2024-02-23T02:59:41;0.2125;;;0.07500000000000001;;
85939;SDS011;76505;46.706;12.340;2024-02-23T03:00:42;1.2999999999999998;;;0.36250000000000004;;
85939;SDS011;76505;46.706;12.340;2024-02-23T03:01:41;0.25;;;0.25;;
85939;SDS011;76505;46.706;12.340;2024-02-23T03:02:41;0.4875;;;0.2625;;
85939;SDS011;76505;46.706;12.340;2024-02-23T03:03:41;0.6125;;;0.3;;
85939;SDS011;76505;46.706;12.340;2024-02-23T03:04:46;0.08750000000000001;;;0.08750000000000001;;
85939;SDS011;76505;46.706;12.340;2024-02-23T03:05:41;0.375;;;0.225;;
85939;SDS011;76505;46.706;12.340;2024-02-23T03:06:42;1.5125000000000002;;;0.6;;
85939;SDS011;76505;46.706;12.340;2024-02-23T03:07:41;0.275;;;0.1125;;
85939;SDS011;76505;46.706;12.340;2024-02-23T03:08:42;0.30000000000000004;;;0.1875;;
85939;SDS011;76505;46.706;12.340;2024-02-23T03:09:41;0.8750000000000001;;;0.325;;
85939;SDS011;76505;46.706;12.340;2024-02-23T03:10:41;1.1875;;;0.4625;;
85939;SDS011;76505;46.706;12.340;2024-02-23T03:11:41;1.2874999999999999;;;0.5625;;
85939;SDS011;76505;46.706;12.340;2024-02-23T03:12:42;0.15000000000000002;;;0.15000000000000002;;
85939;SDS011;76505;46.706;12.340;2024-02-23T03:13:41;1.1124999999999998;;;0.21250000000000002;;
85939;SDS011;76505;46.706;12.340;2024-02-23T03:14:41;0.5625;;;0.3625;;
85939;SDS011;76505;46.706;12.340;2024-02-23T03:15:41;1.3624999999999998;;;0.5375;;
85939;SDS011;76505;46.706;12.340;2024-02-23T03:16:42;0.2;;;0.2;;
85939;SDS011;76505;46.706;12.340;2024-02-23T03:17:41;0.21250000000000002;;;0.21250000000000002;;
85939;SDS011;76505;46.706;12.340;2024-02-23T03:18:41;0.1375;;;0.1375;;
85939;SDS011;76505;46.706;12.340;2024-02-23T03:19:41;0.1;;;0.05;;
85939;SDS011;76505;46.706;12.340;2024-02-23T03:20:42;0.475;;;0.2875;;
85939;SDS011;76505;46.706;12.340;2024-02-23T03:21:41;0.22499999999999998;;;0.1;;
85939;SDS011;76505;46.706;12.340;2024-02-23T03:22:41;0.775;;;0.3625;;
85939;SDS011;76505;46.706;12.340;2024-02-23T03:23:41;0.175;;;0.15000000000000002;;
85939;SDS011;76505;46.706;12.340;2024-02-23T03:24:41;0.7;;;0.15000000000000002;;
85939;SDS011;76505;46.706;12.340;2024-02-23T03:25:41;0.5375000000000001;;;0.1375;;
85939;SDS011;76505;46.706;12.340;2024-02-23T03:26:41;0.2;;;0.15000000000000002;;
85939;SDS011;76505;46.706;12.340;2024-02-23T03:27:41;0.3375;;;0.1375;;
85939;SDS011;76505;46.706;12.340;2024-02-23T03:28:41;0.7375;;;0.275;;
85939;SDS011;76505;46.706;12.340;2024-02-23T03:29:41;1.5;;;0.35;;
85939;SDS011;76505;46.706;12.340;2024-02-23T03:30:41;0.8875;;;0.36250000000000004;;
85939;SDS011;76505;46.706;12.340;2024-02-23T03:31:41;3.5000000000000004;;;1.2125;;
85939;SDS011;76505;46.706;12.340;2024-02-23T03:32:42;0.5625;;;0.2375;;
85939;SDS011;76505;46.706;12.340;2024-02-23T03:33:41;0.775;;;0.3;;
85939;SDS011;76505;46.706;12.340;2024-02-23T03:34:44;1.175;;;0.4125;;
85939;SDS011;76505;46.706;12.340;2024-02-23T03:35:46;0.21250000000000002;;;0.1875;;
85939;SDS011;76505;46.706;12.340;2024-02-23T03:36:42;0.3875;;;0.1;;
85939;SDS011;76505;46.706;12.340;2024-02-23T03:37:41;2.05;;;0.42500000000000004;;
85939;SDS011;76505;46.706;12.340;2024-02-23T03:38:41;2.7375;;;0.6499999999999999;;
85939;SDS011;76505;46.706;12.340;2024-02-23T03:39:41;1.4375;;;0.35;;
85939;SDS011;76505;46.706;12.340;2024-02-23T03:40:41;0.625;;;0.375;;
85939;SDS011;76505;46.706;12.340;2024-02-23T03:41:42;0.6499999999999999;;;0.2;;
85939;SDS011;76505;46.706;12.340;2024-02-23T03:42:41;0.625;;;0.3;;
85939;SDS011;76505;46.706;12.340;2024-02-23T03:43:41;0.9624999999999999;;;0.5;;
85939;SDS011;76505;46.706;12.340;2024-02-23T03:44:43;1.075;;;0.2375;;
85939;SDS011;76505;46.706;12.340;2024-02-23T03:45:41;1.6125;;;0.3875;;
85939;SDS011;76505;46.706;12.340;2024-02-23T03:46:41;0.1625;;;0.1625;;
85939;SDS011;76505;46.706;12.340;2024-02-23T03:47:41;0.21250000000000002;;;0.1125;;
85939;SDS011;76505;46.706;12.340;2024-02-23T03:48:41;1.4375;;;0.5625;;
85939;SDS011;76505;46.706;12.340;2024-02-23T03:49:41;0.23750000000000002;;;0.125;;
85939;SDS011;76505;46.706;12.340;2024-02-23T03:50:41;1.0999999999999999;;;0.4625;;
85939;SDS011;76505;46.706;12.340;2024-02-23T03:51:41;0.4375;;;0.325;;
85939;SDS011;76505;46.706;12.340;2024-02-23T03:52:42;0.41250000000000003;;;0.35;;
85939;SDS011;76505;46.706;12.340;2024-02-23T03:53:41;0.4875;;;0.22500000000000003;;
85939;SDS011;76505;46.706;12.340;2024-02-23T03:54:41;0.2125;;;0.1875;;
85939;SDS011;76505;46.706;12.340;2024-02-23T03:55:41;0.5;;;0.175;;
85939;SDS011;76505;46.706;12.340;2024-02-23T03:56:41;0.225;;;0.2;;
85939;SDS011;76505;46.706;12.340;2024-02-23T03:57:42;1.175;;;0.35;;
85939;SDS011;76505;46.706;12.340;2024-02-23T03:58:41;0.5375000000000001;;;0.3875;;
85939;SDS011;76505;46.706;12.340;2024-02-23T03:59:51;1.525;;;0.6;;
85939;SDS011;76505;46.706;12.340;2024-02-23T04:00:42;1.725;;;0.5874999999999999;;
85939;SDS011;76505;46.706;12.340;2024-02-23T04:01:42;0.7625;;;0.35000000000000003;;
85939;SDS011;76505;46.706;12.340;2024-02-23T04:02:41;0.275;;;0.275;;
85939;SDS011;76505;46.706;12.340;2024-02-23T04:03:41;1.9625;;;0.525;;
85939;SDS011;76505;46.706;12.340;2024-02-23T04:04:41;0.22500000000000003;;;0.125;;
85939;SDS011;76505;46.706;12.340;2024-02-23T04:05:46;0.375;;;0.1125;;
85939;SDS011;76505;46.706;12.340;2024-02-23T04:06:41;0.23750000000000002;;;0.23750000000000002;;
85939;SDS011;76505;46.706;12.340;2024-02-23T04:07:41;0.4;;;0.15000000000000002;;
85939;SDS011;76505;46.706;12.340;2024-02-23T04:08:42;0.75;;;0.16250000000000003;;
85939;SDS011;76505;46.706;12.340;2024-02-23T04:09:41;0.5125;;;0.325;;
85939;SDS011;76505;46.706;12.340;2024-02-23T04:10:41;0.15000000000000002;;;0.15000000000000002;;
85939;SDS011;76505;46.706;12.340;2024-02-23T04:11:41;0.5375;;;0.22499999999999998;;
85939;SDS011;76505;46.706;12.340;2024-02-23T04:12:41;0.575;;;0.35;;
85939;SDS011;76505;46.706;12.340;2024-02-23T04:13:41;0.6625000000000001;;;0.275;;
85939;SDS011;76505;46.706;12.340;2024-02-23T04:14:41;0.95;;;0.375;;
85939;SDS011;76505;46.706;12.340;2024-02-23T04:15:41;0.41250000000000003;;;0.1875;;
85939;SDS011;76505;46.706;12.340;2024-02-23T04:16:41;1.125;;;0.5;;
85939;SDS011;76505;46.706;12.340;2024-02-23T04:17:46;0.8500000000000001;;;0.2875;;
85939;SDS011;76505;46.706;12.340;2024-02-23T04:18:41;1.3875;;;0.36250000000000004;;
85939;SDS011;76505;46.706;12.340;2024-02-23T04:19:41;0.6375;;;0.23750000000000002;;
85939;SDS011;76505;46.706;12.340;2024-02-23T04:20:41;0.775;;;0.35000000000000003;;
85939;SDS011;76505;46.706;12.340;2024-02-23T04:21:41;0.675;;;0.3125;;
85939;SDS011;76505;46.706;12.340;2024-02-23T04:22:41;0.5125;;;0.2;;
85939;SDS011;76505;46.706;12.340;2024-02-23T04:23:42;1.1625;;;0.4;;
85939;SDS011;76505;46.706;12.340;2024-02-23T04:24:41;1.4125;;;0.5;;
85939;SDS011;76505;46.706;12.340;2024-02-23T04:25:41;0.85;;;0.4;;
85939;SDS011;76505;46.706;12.340;2024-02-23T04:26:41;0.975;;;0.3125;;
85939;SDS011;76505;46.706;12.340;2024-02-23T04:27:41;0.6125;;;0.25;;
85939;SDS011;76505;46.706;12.340;2024-02-23T04:28:41;1.2000000000000002;;;0.4875;;
85939;SDS011;76505;46.706;12.340;2024-02-23T04:29:41;0.4625;;;0.3125;;
85939;SDS011;76505;46.706;12.340;2024-02-23T04:30:41;0.7999999999999999;;;0.4375;;
85939;SDS011;76505;46.706;12.340;2024-02-23T04:31:41;0.35;;;0.2875;;
85939;SDS011;76505;46.706;12.340;2024-02-23T04:32:42;1.225;;;0.3875;;
85939;SDS011;76505;46.706;12.340;2024-02-23T04:33:41;1.2999999999999998;;;0.6875;;
85939;SDS011;76505;46.706;12.340;2024-02-23T04:34:41;1.675;;;0.5375;;
85939;SDS011;76505;46.706;12.340;2024-02-23T04:35:41;0.8750000000000001;;;0.4875;;
85939;SDS011;76505;46.706;12.340;2024-02-23T04:36:42;1.5875;;;0.5125;;
85939;SDS011;76505;46.706;12.340;2024-02-23T04:37:43;1.5499999999999998;;;0.41250000000000003;;
85939;SDS011;76505;46.706;12.340;2024-02-23T04:38:41;0.75;;;0.2;;
85939;SDS011;76505;46.706;12.340;2024-02-23T04:39:46;0.7;;;0.175;;
85939;SDS011;76505;46.706;12.340;2024-02-23T04:40:41;0.325;;;0.2;;
85939;SDS011;76505;46.706;12.340;2024-02-23T04:41:41;1.125;;;0.5125;;
85939;SDS011;76505;46.706;12.340;2024-02-23T04:42:43;0.275;;;0.17500000000000002;;
85939;SDS011;76505;46.706;12.340;2024-02-23T04:43:41;0.2625;;;0.225;;
85939;SDS011;76505;46.706;12.340;2024-02-23T04:44:41;0.47500000000000003;;;0.32499999999999996;;
85939;SDS011;76505;46.706;12.340;2024-02-23T04:45:41;0.9875;;;0.225;;
85939;SDS011;76505;46.706;12.340;2024-02-23T04:46:41;2.525;;;0.5625;;
85939;SDS011;76505;46.706;12.340;2024-02-23T04:47:41;2.3125;;;0.7124999999999999;;
85939;SDS011;76505;46.706;12.340;2024-02-23T04:48:42;2.6875;;;0.7124999999999999;;
85939;SDS011;76505;46.706;12.340;2024-02-23T04:49:46;1.7625000000000002;;;0.5874999999999999;;
85939;SDS011;76505;46.706;12.340;2024-02-23T04:50:41;0.11249999999999999;;;0.11249999999999999;;
85939;SDS011;76505;46.706;12.340;2024-02-23T04:51:41;2.3625;;;0.6499999999999999;;
85939;SDS011;76505;46.706;12.340;2024-02-23T04:52:41;5.25;;;1.15;;
85939;SDS011;76505;46.706;12.340;2024-02-23T04:53:42;5.7625;;;1.7;;
85939;SDS011;76505;46.706;12.340;2024-02-23T04:54:41;7.6875;;;2.0625;;
85939;SDS011;76505;46.706;12.340;2024-02-23T04:55:42;7.825000000000001;;;2.7875;;
85939;SDS011;76505;46.706;12.340;2024-02-23T04:56:41;10.7;;;4.449999999999999;;
85939;SDS011;76505;46.706;12.340;2024-02-23T04:57:41;13.2;;;4.7875;;
85939;SDS011;76505;46.706;12.340;2024-02-23T04:58:43;8.075;;;3.05;;
85939;SDS011;76505;46.706;12.340;2024-02-23T04:59:42;9.662499999999998;;;3.4000000000000004;;
85939;SDS011;76505;46.706;12.340;2024-02-23T05:00:42;7.1000000000000005;;;2.4375;;
85939;SDS011;76505;46.706;12.340;2024-02-23T05:01:41;10.975;;;4.125;;
85939;SDS011;76505;46.706;12.340;2024-02-23T05:02:41;9.575;;;2.9625000000000004;;
85939;SDS011;76505;46.706;12.340;2024-02-23T05:03:41;7.8125;;;2.375;;
85939;SDS011;76505;46.706;12.340;2024-02-23T05:04:42;6.475;;;2.2125;;
85939;SDS011;76505;46.706;12.340;2024-02-23T05:05:46;4.5375;;;1.5750000000000002;;
85939;SDS011;76505;46.706;12.340;2024-02-23T05:06:43;5.699999999999999;;;1.8375;;
85939;SDS011;76505;46.706;12.340;2024-02-23T05:07:41;4.1499999999999995;;;1.2;;
85939;SDS011;76505;46.706;12.340;2024-02-23T05:08:45;3.6875;;;1.0;;
85939;SDS011;76505;46.706;12.340;2024-02-23T05:09:41;3.7625;;;1.3125;;
85939;SDS011;76505;46.706;12.340;2024-02-23T05:10:41;3.7;;;1.0625;;
85939;SDS011;76505;46.706;12.340;2024-02-23T05:11:41;4.737500000000001;;;1.2625;;